sensor_id;sensor_type;location;lat;lon;timestamp;pressure;altitude;pressure_sealevel;temperature;humidity
21520;BME280;10921;53.614;9.882;2023-03-16T00:02:01;101744.19;;;0.15;79.43
21520;BME280;10921;53.614;9.882;2023-03-16T00:04:29;101794.94;;;0.39;80.01
21520;BME280;10921;53.614;9.882;2023-03-16T00:07:10;101796.56;;;0.43;81.13
21520;BME280;10921;53.614;9.882;2023-03-16T00:09:37;101802.78;;;0.41;80.83
21520;BME280;10921;53.614;9.882;2023-03-16T00:12:13;101799.25;;;0.42;81.52
21520;BME280;10921;53.614;9.882;2023-03-16T00:14:42;101803.63;;;0.41;81.21
21520;BME280;10921;53.614;9.882;2023-03-16T00:17:13;101811.47;;;0.43;81.97
21520;BME280;10921;53.614;9.882;2023-03-16T00:20:18;101807.03;;;0.45;82.41
21520;BME280;10921;53.614;9.882;2023-03-16T00:22:45;101801.94;;;0.40;82.17
21520;BME280;10921;53.614;9.882;2023-03-16T00:25:12;101811.28;;;0.47;82.32
21520;BME280;10921;53.614;9.882;2023-03-16T00:27:40;101811.22;;;0.49;82.70
21520;BME280;10921;53.614;9.882;2023-03-16T00:30:09;101813.75;;;0.52;83.11
21520;BME280;10921;53.614;9.882;2023-03-16T00:32:37;101806.63;;;0.55;83.81
21520;BME280;10921;53.614;9.882;2023-03-16T00:35:04;101815.28;;;0.59;83.55
21520;BME280;10921;53.614;9.882;2023-03-16T00:37:34;101810.75;;;0.62;84.83
21520;BME280;10921;53.614;9.882;2023-03-16T00:40:03;101817.56;;;0.68;84.94
21520;BME280;10921;53.614;9.882;2023-03-16T00:42:30;101760.66;;;0.44;84.61
21520;BME280;10921;53.614;9.882;2023-03-16T00:44:57;101800.84;;;0.70;84.95
21520;BME280;10921;53.614;9.882;2023-03-16T00:47:25;101810.13;;;0.79;85.01
21520;BME280;10921;53.614;9.882;2023-03-16T00:49:53;101799.06;;;0.71;84.68
21520;BME280;10921;53.614;9.882;2023-03-16T00:52:20;101760.31;;;0.53;84.47
21520;BME280;10921;53.614;9.882;2023-03-16T00:54:47;101816.94;;;0.85;84.01
21520;BME280;10921;53.614;9.882;2023-03-16T00:57:16;101812.56;;;0.85;84.42
21520;BME280;10921;53.614;9.882;2023-03-16T00:59:47;101833.56;;;0.85;84.58
21520;BME280;10921;53.614;9.882;2023-03-16T01:02:15;101780.88;;;0.65;84.73
21520;BME280;10921;53.614;9.882;2023-03-16T01:04:42;101820.34;;;0.88;84.80
21520;BME280;10921;53.614;9.882;2023-03-16T01:07:11;101809.81;;;0.88;85.10
21520;BME280;10921;53.614;9.882;2023-03-16T01:09:40;101801.09;;;0.88;84.56
21520;BME280;10921;53.614;9.882;2023-03-16T01:12:12;101808.00;;;0.90;84.25
21520;BME280;10921;53.614;9.882;2023-03-16T01:14:40;101802.09;;;0.84;83.56
21520;BME280;10921;53.614;9.882;2023-03-16T01:17:07;101808.22;;;0.84;83.45
21520;BME280;10921;53.614;9.882;2023-03-16T01:19:36;101798.81;;;0.77;83.12
21520;BME280;10921;53.614;9.882;2023-03-16T01:22:06;101774.88;;;0.61;82.82
21520;BME280;10921;53.614;9.882;2023-03-16T01:24:35;101804.44;;;0.68;82.44
21520;BME280;10921;53.614;9.882;2023-03-16T01:27:03;101789.91;;;0.58;82.60
21520;BME280;10921;53.614;9.882;2023-03-16T01:29:30;101802.25;;;0.56;82.65
21520;BME280;10921;53.614;9.882;2023-03-16T01:31:57;101801.53;;;0.51;82.35
21520;BME280;10921;53.614;9.882;2023-03-16T01:34:23;101799.06;;;0.46;82.42
21520;BME280;10921;53.614;9.882;2023-03-16T01:36:50;101796.56;;;0.43;82.80
21520;BME280;10921;53.614;9.882;2023-03-16T01:39:17;101733.88;;;0.09;83.19
21520;BME280;10921;53.614;9.882;2023-03-16T01:41:45;101789.75;;;0.38;83.01
21520;BME280;10921;53.614;9.882;2023-03-16T01:44:23;101791.53;;;0.37;83.43
21520;BME280;10921;53.614;9.882;2023-03-16T01:46:56;101793.28;;;0.37;83.35
21520;BME280;10921;53.614;9.882;2023-03-16T01:49:31;101789.75;;;0.38;84.32
21520;BME280;10921;53.614;9.882;2023-03-16T01:54:56;101792.44;;;0.36;84.80
21520;BME280;10921;53.614;9.882;2023-03-16T01:57:31;101794.94;;;0.39;84.67
21520;BME280;10921;53.614;9.882;2023-03-16T02:00:08;101793.25;;;0.38;84.62
21520;BME280;10921;53.614;9.882;2023-03-16T02:02:38;101796.78;;;0.37;83.85
21520;BME280;10921;53.614;9.882;2023-03-16T02:05:14;101793.28;;;0.37;84.44
21520;BME280;10921;53.614;9.882;2023-03-16T02:07:45;101785.50;;;0.33;83.65
21520;BME280;10921;53.614;9.882;2023-03-16T02:10:15;101792.66;;;0.30;83.34
21520;BME280;10921;53.614;9.882;2023-03-16T02:12:42;101787.50;;;0.27;83.61
21520;BME280;10921;53.614;9.882;2023-03-16T02:15:10;101782.41;;;0.22;83.47
21520;BME280;10921;53.614;9.882;2023-03-16T02:17:37;101776.41;;;0.19;83.33
21520;BME280;10921;53.614;9.882;2023-03-16T02:20:22;101780.94;;;0.15;83.66
21520;BME280;10921;53.614;9.882;2023-03-16T02:22:51;101778.44;;;0.11;83.09
21520;BME280;10921;53.614;9.882;2023-03-16T02:25:34;101758.56;;;0.04;83.89
21520;BME280;10921;53.614;9.882;2023-03-16T02:30:51;101757.03;;;-0.02;83.18
21520;BME280;10921;53.614;9.882;2023-03-16T02:33:19;101752.63;;;-0.02;83.50
21520;BME280;10921;53.614;9.882;2023-03-16T02:35:46;101766.66;;;-0.03;83.36
21520;BME280;10921;53.614;9.882;2023-03-16T02:38:13;101758.03;;;-0.06;83.58
21520;BME280;10921;53.614;9.882;2023-03-16T02:40:39;101759.69;;;-0.04;83.85
21520;BME280;10921;53.614;9.882;2023-03-16T02:43:14;101768.41;;;-0.03;84.20
21520;BME280;10921;53.614;9.882;2023-03-16T02:45:51;101773.63;;;-0.02;84.56
21520;BME280;10921;53.614;9.882;2023-03-16T02:48:26;101775.38;;;-0.02;85.03
21520;BME280;10921;53.614;9.882;2023-03-16T02:50:53;101777.09;;;-0.01;84.65
21520;BME280;10921;53.614;9.882;2023-03-16T02:53:20;101769.28;;;-0.03;84.53
21520;BME280;10921;53.614;9.882;2023-03-16T02:55:47;101777.78;;;0.04;84.58
21520;BME280;10921;53.614;9.882;2023-03-16T02:58:14;101773.34;;;0.06;84.53
21520;BME280;10921;53.614;9.882;2023-03-16T03:00:41;101766.31;;;0.07;84.67
21520;BME280;10921;53.614;9.882;2023-03-16T03:03:08;101752.78;;;-0.06;84.42
21520;BME280;10921;53.614;9.882;2023-03-16T03:05:35;101740.75;;;-0.13;83.75
21520;BME280;10921;53.614;9.882;2023-03-16T03:08:02;101763.84;;;0.02;83.68
21520;BME280;10921;53.614;9.882;2023-03-16T03:10:28;101774.41;;;0.00;84.13
21520;BME280;10921;53.614;9.882;2023-03-16T03:12:55;101771.84;;;-0.01;84.05
21520;BME280;10921;53.614;9.882;2023-03-16T03:15:23;101777.38;;;-0.10;84.05
21520;BME280;10921;53.614;9.882;2023-03-16T03:17:49;101794.66;;;-0.03;84.62
21520;BME280;10921;53.614;9.882;2023-03-16T03:20:16;101788.50;;;-0.02;84.77
21520;BME280;10921;53.614;9.882;2023-03-16T03:22:46;101786.56;;;0.03;84.66
21520;BME280;10921;53.614;9.882;2023-03-16T03:25:14;101779.59;;;0.02;84.56
21520;BME280;10921;53.614;9.882;2023-03-16T03:27:42;101775.25;;;0.01;84.96
21520;BME280;10921;53.614;9.882;2023-03-16T03:30:12;101777.72;;;0.06;84.68
21520;BME280;10921;53.614;9.882;2023-03-16T03:32:39;101782.94;;;0.07;84.94
21520;BME280;10921;53.614;9.882;2023-03-16T03:35:07;101775.06;;;0.07;84.93
21520;BME280;10921;53.614;9.882;2023-03-16T03:37:34;101775.88;;;0.09;85.40
21520;BME280;10921;53.614;9.882;2023-03-16T03:40:00;101737.22;;;-0.12;85.42
21520;BME280;10921;53.614;9.882;2023-03-16T03:42:35;101773.97;;;0.14;85.27
21520;BME280;10921;53.614;9.882;2023-03-16T03:45:02;101776.50;;;0.16;85.73
21520;BME280;10921;53.614;9.882;2023-03-16T03:47:29;101778.06;;;0.21;85.56
21520;BME280;10921;53.614;9.882;2023-03-16T03:49:56;101772.72;;;0.24;86.04
21520;BME280;10921;53.614;9.882;2023-03-16T03:52:22;101776.97;;;0.28;85.59
21520;BME280;10921;53.614;9.882;2023-03-16T03:54:49;101772.44;;;0.32;86.43
21520;BME280;10921;53.614;9.882;2023-03-16T03:57:16;101773.19;;;0.35;86.02
21520;BME280;10921;53.614;9.882;2023-03-16T03:59:42;101767.03;;;0.37;85.58
21520;BME280;10921;53.614;9.882;2023-03-16T04:02:10;101770.41;;;0.40;85.59
21520;BME280;10921;53.614;9.882;2023-03-16T04:04:37;101707.75;;;0.06;85.57
21520;BME280;10921;53.614;9.882;2023-03-16T04:07:04;101765.97;;;0.42;85.51
21520;BME280;10921;53.614;9.882;2023-03-16T04:09:30;101774.72;;;0.43;85.21
21520;BME280;10921;53.614;9.882;2023-03-16T04:12:00;101747.03;;;0.32;85.13
21520;BME280;10921;53.614;9.882;2023-03-16T04:14:28;101763.25;;;0.45;85.16
21520;BME280;10921;53.614;9.882;2023-03-16T04:16:55;101755.28;;;0.47;85.51
21520;BME280;10921;53.614;9.882;2023-03-16T04:19:23;101762.25;;;0.48;85.31
21520;BME280;10921;53.614;9.882;2023-03-16T04:21:50;101757.00;;;0.48;85.74
21520;BME280;10921;53.614;9.882;2023-03-16T04:24:16;101754.41;;;0.46;85.56
21520;BME280;10921;53.614;9.882;2023-03-16T04:26:44;101753.50;;;0.47;85.60
21520;BME280;10921;53.614;9.882;2023-03-16T04:29:14;101751.69;;;0.49;86.00
21520;BME280;10921;53.614;9.882;2023-03-16T04:31:44;101757.00;;;0.48;85.13
21520;BME280;10921;53.614;9.882;2023-03-16T04:34:10;101748.44;;;0.43;85.34
21520;BME280;10921;53.614;9.882;2023-03-16T04:36:37;101746.72;;;0.42;85.24
21520;BME280;10921;53.614;9.882;2023-03-16T04:39:04;101758.28;;;0.36;84.88
21520;BME280;10921;53.614;9.882;2023-03-16T04:41:31;101769.56;;;0.40;85.11
21520;BME280;10921;53.614;9.882;2023-03-16T04:43:58;101760.00;;;0.37;84.78
21520;BME280;10921;53.614;9.882;2023-03-16T04:46:25;101750.56;;;0.31;85.28
21520;BME280;10921;53.614;9.882;2023-03-16T04:48:53;101756.59;;;0.35;85.26
21520;BME280;10921;53.614;9.882;2023-03-16T04:51:19;101735.16;;;0.22;85.28
21520;BME280;10921;53.614;9.882;2023-03-16T04:53:46;101743.50;;;0.33;85.60
21520;BME280;10921;53.614;9.882;2023-03-16T04:56:13;101741.94;;;0.29;85.60
21520;BME280;10921;53.614;9.882;2023-03-16T04:58:46;101748.56;;;0.40;85.76
21520;BME280;10921;53.614;9.882;2023-03-16T05:01:14;101739.75;;;0.41;85.92
21520;BME280;10921;53.614;9.882;2023-03-16T05:03:40;101692.59;;;0.14;85.78
21520;BME280;10921;53.614;9.882;2023-03-16T05:06:08;101678.78;;;0.09;85.79
21520;BME280;10921;53.614;9.882;2023-03-16T05:08:35;101749.13;;;0.48;86.26
21520;BME280;10921;53.614;9.882;2023-03-16T05:11:02;101743.75;;;0.51;85.78
21520;BME280;10921;53.614;9.882;2023-03-16T05:13:28;101721.50;;;0.38;86.36
21520;BME280;10921;53.614;9.882;2023-03-16T05:15:55;101748.06;;;0.53;86.06
21520;BME280;10921;53.614;9.882;2023-03-16T05:18:21;101747.09;;;0.56;86.53
21520;BME280;10921;53.614;9.882;2023-03-16T05:20:52;101735.84;;;0.52;86.06
21520;BME280;10921;53.614;9.882;2023-03-16T05:23:20;101743.34;;;0.61;86.41
21520;BME280;10921;53.614;9.882;2023-03-16T05:25:47;101737.16;;;0.64;86.77
21520;BME280;10921;53.614;9.882;2023-03-16T05:28:15;101747.50;;;0.68;86.80
21520;BME280;10921;53.614;9.882;2023-03-16T05:30:42;101744.66;;;0.75;87.03
21520;BME280;10921;53.614;9.882;2023-03-16T05:33:10;101753.19;;;0.80;87.38
21520;BME280;10921;53.614;9.882;2023-03-16T05:35:37;101749.50;;;0.85;87.44
21520;BME280;10921;53.614;9.882;2023-03-16T05:38:04;101744.06;;;0.90;87.55
21520;BME280;10921;53.614;9.882;2023-03-16T05:40:30;101758.50;;;1.01;87.65
21520;BME280;10921;53.614;9.882;2023-03-16T05:42:58;101759.88;;;1.12;87.76
21520;BME280;10921;53.614;9.882;2023-03-16T05:45:26;101754.34;;;1.19;87.31
21520;BME280;10921;53.614;9.882;2023-03-16T05:47:53;101748.16;;;1.20;87.33
21520;BME280;10921;53.614;9.882;2023-03-16T05:50:19;101748.47;;;1.34;87.16
21520;BME280;10921;53.614;9.882;2023-03-16T05:52:46;101740.53;;;1.36;87.27
21520;BME280;10921;53.614;9.882;2023-03-16T05:55:14;101754.88;;;1.49;87.33
21520;BME280;10921;53.614;9.882;2023-03-16T05:57:41;101761.72;;;1.53;86.92
21520;BME280;10921;53.614;9.882;2023-03-16T06:00:10;101759.72;;;1.60;86.67
21520;BME280;10921;53.614;9.882;2023-03-16T06:02:44;101763.94;;;1.64;86.77
21520;BME280;10921;53.614;9.882;2023-03-16T06:05:13;101754.06;;;1.69;86.63
21520;BME280;10921;53.614;9.882;2023-03-16T06:07:40;101731.00;;;1.54;86.73
21520;BME280;10921;53.614;9.882;2023-03-16T06:10:07;101766.81;;;1.80;86.49
21520;BME280;10921;53.614;9.882;2023-03-16T06:12:34;101757.94;;;1.82;86.51
21520;BME280;10921;53.614;9.882;2023-03-16T06:15:01;101767.16;;;1.92;86.26
21520;BME280;10921;53.614;9.882;2023-03-16T06:17:28;101757.41;;;1.94;85.99
21520;BME280;10921;53.614;9.882;2023-03-16T06:19:55;101762.34;;;2.02;85.71
21520;BME280;10921;53.614;9.882;2023-03-16T06:22:21;101748.94;;;2.08;85.65
21520;BME280;10921;53.614;9.882;2023-03-16T06:24:49;101767.75;;;2.19;85.98
21520;BME280;10921;53.614;9.882;2023-03-16T06:27:17;101760.31;;;2.29;85.00
21520;BME280;10921;53.614;9.882;2023-03-16T06:29:46;101773.16;;;2.36;84.77
21520;BME280;10921;53.614;9.882;2023-03-16T06:32:13;101770.38;;;2.39;85.16
21520;BME280;10921;53.614;9.882;2023-03-16T06:34:40;101770.91;;;2.47;84.68
21520;BME280;10921;53.614;9.882;2023-03-16T06:37:07;101780.91;;;2.60;84.05
21520;BME280;10921;53.614;9.882;2023-03-16T06:39:34;101715.56;;;2.29;83.83
21520;BME280;10921;53.614;9.882;2023-03-16T06:42:00;101766.78;;;2.61;83.67
21520;BME280;10921;53.614;9.882;2023-03-16T06:44:27;101785.16;;;2.82;83.56
21520;BME280;10921;53.614;9.882;2023-03-16T06:46:53;101791.00;;;2.89;82.86
21520;BME280;10921;53.614;9.882;2023-03-16T06:49:20;101784.72;;;2.92;82.36
21520;BME280;10921;53.614;9.882;2023-03-16T06:51:46;101781.03;;;2.96;81.67
21520;BME280;10921;53.614;9.882;2023-03-16T06:54:13;101771.22;;;2.99;81.43
21520;BME280;10921;53.614;9.882;2023-03-16T06:56:39;101783.09;;;3.08;80.49
21520;BME280;10921;53.614;9.882;2023-03-16T06:59:06;101788.22;;;3.11;80.58
21520;BME280;10921;53.614;9.882;2023-03-16T07:01:33;101788.81;;;3.17;80.09
21520;BME280;10921;53.614;9.882;2023-03-16T07:04:00;101784.22;;;3.21;79.58
21520;BME280;10921;53.614;9.882;2023-03-16T07:06:26;101785.09;;;3.22;79.08
21520;BME280;10921;53.614;9.882;2023-03-16T07:08:53;101799.78;;;3.27;78.16
21520;BME280;10921;53.614;9.882;2023-03-16T07:11:20;101791.81;;;3.29;78.11
21520;BME280;10921;53.614;9.882;2023-03-16T07:13:47;101794.16;;;3.35;76.34
21520;BME280;10921;53.614;9.882;2023-03-16T07:16:13;101750.31;;;3.13;76.38
21520;BME280;10921;53.614;9.882;2023-03-16T07:18:40;101798.78;;;3.48;75.53
21520;BME280;10921;53.614;9.882;2023-03-16T07:21:10;101799.06;;;3.61;75.39
21520;BME280;10921;53.614;9.882;2023-03-16T07:23:36;101799.53;;;3.69;74.76
21520;BME280;10921;53.614;9.882;2023-03-16T07:26:02;101795.59;;;3.78;73.03
21520;BME280;10921;53.614;9.882;2023-03-16T07:28:29;101806.34;;;3.92;71.94
21520;BME280;10921;53.614;9.882;2023-03-16T07:30:55;101794.31;;;4.04;72.42
21520;BME280;10921;53.614;9.882;2023-03-16T07:33:32;101792.75;;;4.17;71.32
21520;BME280;10921;53.614;9.882;2023-03-16T07:35:59;101804.59;;;4.27;69.88
21520;BME280;10921;53.614;9.882;2023-03-16T07:38:33;101807.69;;;4.35;69.21
21520;BME280;10921;53.614;9.882;2023-03-16T07:40:59;101798.66;;;4.39;68.60
21520;BME280;10921;53.614;9.882;2023-03-16T07:43:26;101803.47;;;4.48;67.85
21520;BME280;10921;53.614;9.882;2023-03-16T07:45:53;101806.59;;;4.56;66.82
21520;BME280;10921;53.614;9.882;2023-03-16T07:48:19;101807.03;;;4.65;67.23
21520;BME280;10921;53.614;9.882;2023-03-16T07:50:47;101804.16;;;4.69;66.24
21520;BME280;10921;53.614;9.882;2023-03-16T07:53:14;101808.16;;;4.76;66.02
21520;BME280;10921;53.614;9.882;2023-03-16T07:55:42;101799.69;;;4.87;66.12
21520;BME280;10921;53.614;9.882;2023-03-16T07:58:09;101805.41;;;4.95;65.57
21520;BME280;10921;53.614;9.882;2023-03-16T08:00:36;101801.31;;;5.05;65.52
21520;BME280;10921;53.614;9.882;2023-03-16T08:03:03;101807.56;;;5.20;65.52
21520;BME280;10921;53.614;9.882;2023-03-16T08:05:30;101797.97;;;5.35;65.68
21520;BME280;10921;53.614;9.882;2023-03-16T08:08:00;101791.28;;;5.43;62.66
21520;BME280;10921;53.614;9.882;2023-03-16T08:10:27;101797.44;;;5.59;62.33
21520;BME280;10921;53.614;9.882;2023-03-16T08:12:54;101797.06;;;5.65;60.60
21520;BME280;10921;53.614;9.882;2023-03-16T08:15:22;101803.66;;;5.74;59.77
21520;BME280;10921;53.614;9.882;2023-03-16T08:17:49;101796.88;;;5.84;60.11
21520;BME280;10921;53.614;9.882;2023-03-16T08:20:15;101794.88;;;5.89;59.40
21520;BME280;10921;53.614;9.882;2023-03-16T08:22:42;101796.72;;;6.03;60.69
21520;BME280;10921;53.614;9.882;2023-03-16T08:25:13;101795.06;;;6.16;61.33
21520;BME280;10921;53.614;9.882;2023-03-16T08:27:39;101771.28;;;6.15;60.14
21520;BME280;10921;53.614;9.882;2023-03-16T08:30:08;101792.00;;;6.38;59.94
21520;BME280;10921;53.614;9.882;2023-03-16T08:32:37;101789.63;;;6.48;59.32
21520;BME280;10921;53.614;9.882;2023-03-16T08:35:09;101793.56;;;6.56;59.37
21520;BME280;10921;53.614;9.882;2023-03-16T08:37:39;101787.84;;;6.62;58.47
21520;BME280;10921;53.614;9.882;2023-03-16T08:40:08;101787.50;;;6.68;58.33
21520;BME280;10921;53.614;9.882;2023-03-16T08:42:44;101795.75;;;6.78;57.76
21520;BME280;10921;53.614;9.882;2023-03-16T08:45:11;101779.72;;;6.80;57.48
21520;BME280;10921;53.614;9.882;2023-03-16T08:47:40;101780.00;;;6.89;57.78
21520;BME280;10921;53.614;9.882;2023-03-16T08:50:07;101782.47;;;7.06;57.46
21520;BME280;10921;53.614;9.882;2023-03-16T08:52:34;101793.38;;;7.16;56.73
21520;BME280;10921;53.614;9.882;2023-03-16T08:55:04;101735.00;;;7.02;56.48
21520;BME280;10921;53.614;9.882;2023-03-16T08:57:32;101770.47;;;7.42;56.17
21520;BME280;10921;53.614;9.882;2023-03-16T09:00:00;101789.25;;;7.66;56.52
21520;BME280;10921;53.614;9.882;2023-03-16T09:02:27;101787.22;;;7.84;55.43
21520;BME280;10921;53.614;9.882;2023-03-16T09:04:54;101780.78;;;8.00;54.77
21520;BME280;10921;53.614;9.882;2023-03-16T09:07:21;101766.38;;;8.17;54.63
21520;BME280;10921;53.614;9.882;2023-03-16T09:09:48;101684.88;;;7.78;56.04
21520;BME280;10921;53.614;9.882;2023-03-16T09:12:14;101770.59;;;8.59;54.28
21520;BME280;10921;53.614;9.882;2023-03-16T09:14:41;101748.69;;;8.68;54.48
21520;BME280;10921;53.614;9.882;2023-03-16T09:17:07;101769.06;;;8.93;53.12
21520;BME280;10921;53.614;9.882;2023-03-16T09:19:34;101770.22;;;9.14;52.65
21520;BME280;10921;53.614;9.882;2023-03-16T09:22:16;101781.75;;;9.39;53.88
21520;BME280;10921;53.614;9.882;2023-03-16T09:24:43;101765.72;;;9.51;52.71
21520;BME280;10921;53.614;9.882;2023-03-16T09:27:10;101774.88;;;9.84;51.96
21520;BME280;10921;53.614;9.882;2023-03-16T09:29:37;101757.72;;;9.99;50.48
21520;BME280;10921;53.614;9.882;2023-03-16T09:32:03;101773.03;;;10.32;50.79
21520;BME280;10921;53.614;9.882;2023-03-16T09:34:30;101729.22;;;10.23;47.50
21520;BME280;10921;53.614;9.882;2023-03-16T09:36:59;101737.66;;;10.52;46.28
21520;BME280;10921;53.614;9.882;2023-03-16T09:39:26;101741.91;;;10.77;47.47
21520;BME280;10921;53.614;9.882;2023-03-16T09:41:53;101751.50;;;11.02;45.58
21520;BME280;10921;53.614;9.882;2023-03-16T09:44:32;101756.91;;;11.34;47.15
21520;BME280;10921;53.614;9.882;2023-03-16T09:47:03;101749.47;;;11.49;43.88
21520;BME280;10921;53.614;9.882;2023-03-16T09:49:41;101755.28;;;11.76;44.00
21520;BME280;10921;53.614;9.882;2023-03-16T09:55:14;101737.97;;;12.12;41.29
21520;BME280;10921;53.614;9.882;2023-03-16T09:57:42;101738.81;;;12.33;43.07
21520;BME280;10921;53.614;9.882;2023-03-16T10:03:08;101746.75;;;12.65;40.27
21520;BME280;10921;53.614;9.882;2023-03-16T10:05:38;101728.41;;;12.61;39.39
21520;BME280;10921;53.614;9.882;2023-03-16T10:08:15;101733.00;;;12.80;40.36
21520;BME280;10921;53.614;9.882;2023-03-16T10:13:52;101720.53;;;12.69;38.58
21520;BME280;10921;53.614;9.882;2023-03-16T10:19:00;101708.06;;;12.79;39.17
21520;BME280;10921;53.614;9.882;2023-03-16T10:21:30;101715.16;;;12.99;39.98
21520;BME280;10921;53.614;9.882;2023-03-16T10:23:59;101722.81;;;13.04;37.78
21520;BME280;10921;53.614;9.882;2023-03-16T10:26:36;101718.78;;;13.19;38.17
21520;BME280;10921;53.614;9.882;2023-03-16T10:29:10;101716.56;;;13.34;38.15
21520;BME280;10921;53.614;9.882;2023-03-16T10:31:39;101708.84;;;13.41;37.62
21520;BME280;10921;53.614;9.882;2023-03-16T10:34:07;101698.50;;;13.46;35.46
21520;BME280;10921;53.614;9.882;2023-03-16T10:36:36;101715.63;;;13.73;36.76
21520;BME280;10921;53.614;9.882;2023-03-16T10:39:10;101698.56;;;13.75;35.00
21520;BME280;10921;53.614;9.882;2023-03-16T10:41:42;101707.03;;;13.89;37.13
21520;BME280;10921;53.614;9.882;2023-03-16T10:44:21;101697.41;;;13.96;35.18
21520;BME280;10921;53.614;9.882;2023-03-16T10:46:57;101698.22;;;14.06;36.33
21520;BME280;10921;53.614;9.882;2023-03-16T10:49:43;101689.63;;;13.93;33.68
21520;BME280;10921;53.614;9.882;2023-03-16T10:54:49;101689.59;;;14.13;34.83
21520;BME280;10921;53.614;9.882;2023-03-16T10:59:59;101690.34;;;14.05;33.21
21520;BME280;10921;53.614;9.882;2023-03-16T11:02:31;101667.72;;;14.17;33.00
21520;BME280;10921;53.614;9.882;2023-03-16T11:04:58;101679.53;;;14.34;34.15
21520;BME280;10921;53.614;9.882;2023-03-16T11:07:36;101658.91;;;14.34;31.36
21520;BME280;10921;53.614;9.882;2023-03-16T11:10:12;101665.81;;;14.47;31.61
21520;BME280;10921;53.614;9.882;2023-03-16T11:12:49;101645.63;;;14.42;29.62
21520;BME280;10921;53.614;9.882;2023-03-16T11:15:16;101650.16;;;14.42;29.97
21520;BME280;10921;53.614;9.882;2023-03-16T11:17:51;101657.75;;;14.47;30.89
21520;BME280;10921;53.614;9.882;2023-03-16T11:20:25;101665.22;;;14.53;30.64
21520;BME280;10921;53.614;9.882;2023-03-16T11:22:53;101661.16;;;14.49;29.85
21520;BME280;10921;53.614;9.882;2023-03-16T11:25:26;101657.91;;;14.45;29.08
21520;BME280;10921;53.614;9.882;2023-03-16T11:28:06;101654.13;;;14.28;29.06
21520;BME280;10921;53.614;9.882;2023-03-16T11:33:12;101654.66;;;14.41;29.41
21520;BME280;10921;53.614;9.882;2023-03-16T11:36:16;101665.34;;;14.61;29.91
21520;BME280;10921;53.614;9.882;2023-03-16T11:39:13;101651.56;;;14.73;28.17
21520;BME280;10921;53.614;9.882;2023-03-16T11:50:04;101626.94;;;15.41;27.43
21520;BME280;10921;53.614;9.882;2023-03-16T11:52:51;101620.38;;;15.43;26.57
21520;BME280;10921;53.614;9.882;2023-03-16T11:58:06;101605.78;;;15.28;26.36
21520;BME280;10921;53.614;9.882;2023-03-16T12:03:46;101604.81;;;15.11;25.65
21520;BME280;10921;53.614;9.882;2023-03-16T12:12:44;101599.16;;;14.87;26.44
21520;BME280;10921;53.614;9.882;2023-03-16T12:15:29;101602.84;;;14.86;25.86
21520;BME280;10921;53.614;9.882;2023-03-16T12:18:07;101602.53;;;14.89;25.91
21520;BME280;10921;53.614;9.882;2023-03-16T12:23:18;101598.72;;;14.92;26.50
21520;BME280;10921;53.614;9.882;2023-03-16T12:25:49;101583.25;;;14.76;25.73
21520;BME280;10921;53.614;9.882;2023-03-16T12:28:24;101586.53;;;14.70;25.37
21520;BME280;10921;53.614;9.882;2023-03-16T12:33:47;101564.66;;;14.65;26.14
21520;BME280;10921;53.614;9.882;2023-03-16T12:39:06;101545.31;;;14.61;27.05
21520;BME280;10921;53.614;9.882;2023-03-16T12:41:58;101562.66;;;14.67;26.56
21520;BME280;10921;53.614;9.882;2023-03-16T12:44:53;101537.81;;;14.65;26.44
21520;BME280;10921;53.614;9.882;2023-03-16T12:47:31;101554.91;;;14.64;26.28
21520;BME280;10921;53.614;9.882;2023-03-16T12:50:06;101533.50;;;14.72;27.65
21520;BME280;10921;53.614;9.882;2023-03-16T12:52:45;101547.38;;;14.67;24.69
21520;BME280;10921;53.614;9.882;2023-03-16T12:55:23;101541.13;;;14.76;26.26
21520;BME280;10921;53.614;9.882;2023-03-16T12:57:58;101525.75;;;14.87;25.93
21520;BME280;10921;53.614;9.882;2023-03-16T13:00:33;101502.09;;;14.55;24.81
21520;BME280;10921;53.614;9.882;2023-03-16T13:03:01;101535.06;;;14.74;25.27
21520;BME280;10921;53.614;9.882;2023-03-16T13:05:33;101519.69;;;14.67;25.68
21520;BME280;10921;53.614;9.882;2023-03-16T13:08:09;101494.06;;;14.72;26.36
21520;BME280;10921;53.614;9.882;2023-03-16T13:10:37;101502.94;;;14.55;25.92
21520;BME280;10921;53.614;9.882;2023-03-16T13:13:09;101509.47;;;14.70;26.96
21520;BME280;10921;53.614;9.882;2023-03-16T13:15:36;101495.97;;;14.62;25.91
21520;BME280;10921;53.614;9.882;2023-03-16T13:20:53;101499.19;;;14.48;26.98
21520;BME280;10921;53.614;9.882;2023-03-16T13:23:24;101511.38;;;14.42;27.20
21520;BME280;10921;53.614;9.882;2023-03-16T13:26:02;101507.75;;;14.52;27.13
21520;BME280;10921;53.614;9.882;2023-03-16T13:28:31;101493.34;;;14.25;25.42
21520;BME280;10921;53.614;9.882;2023-03-16T13:31:00;101454.56;;;14.10;25.76
21520;BME280;10921;53.614;9.882;2023-03-16T13:33:33;101495.66;;;14.20;26.79
21520;BME280;10921;53.614;9.882;2023-03-16T13:36:04;101474.91;;;13.85;25.24
21520;BME280;10921;53.614;9.882;2023-03-16T13:38:31;101490.13;;;13.85;25.37
21520;BME280;10921;53.614;9.882;2023-03-16T13:41:04;101471.44;;;13.65;25.30
21520;BME280;10921;53.614;9.882;2023-03-16T13:43:37;101480.22;;;13.58;25.55
21520;BME280;10921;53.614;9.882;2023-03-16T13:46:15;101473.19;;;13.37;25.91
21520;BME280;10921;53.614;9.882;2023-03-16T13:48:43;101483.78;;;13.10;26.07
21520;BME280;10921;53.614;9.882;2023-03-16T13:51:16;101482.66;;;13.03;26.63
21520;BME280;10921;53.614;9.882;2023-03-16T13:53:43;101482.66;;;12.84;26.46
21520;BME280;10921;53.614;9.882;2023-03-16T13:56:15;101455.75;;;12.66;27.82
21520;BME280;10921;53.614;9.882;2023-03-16T13:58:45;101469.25;;;12.74;28.16
21520;BME280;10921;53.614;9.882;2023-03-16T14:01:16;101474.63;;;12.84;28.61
21520;BME280;10921;53.614;9.882;2023-03-16T14:03:46;101464.47;;;12.58;27.22
21520;BME280;10921;53.614;9.882;2023-03-16T14:06:29;101430.16;;;12.23;27.87
21520;BME280;10921;53.614;9.882;2023-03-16T14:08:59;101458.53;;;12.45;29.01